Time;durP1;ratioP1;P1;durP2;ratioP2;P2;SDS_P1;SDS_P2;PMS_P1;PMS_P2;Temp;Humidity;BMP_temperature;BMP_pressure;BME280_temperature;BME280_humidity;BME280_pressure;Samples;Min_cycle;Max_cycle;Signal;HPM_P1;HPM_P2
2021/01/26 00:01:21;;;;;;;1.17;1.17;;;;;;;-1.11;88.60;100350.53;6199472;28;20193;-75
2021/01/26 00:04:25;;;;;;;1.10;1.10;;;;;;;-0.97;88.02;100347.28;6209780;28;20207;-76
2021/01/26 00:07:29;;;;;;;1.30;1.30;;;;;;;-0.89;88.33;100366.09;6205178;28;20197;-74
2021/01/26 00:10:33;;;;;;;1.27;1.27;;;;;;;-0.84;88.34;100371.81;6204057;28;21176;-75
2021/01/26 00:13:37;;;;;;;1.30;1.30;;;;;;;-0.92;88.32;100374.44;6204299;28;20189;-74
2021/01/26 00:16:40;;;;;;;1.33;1.33;;;;;;;-0.89;88.38;100382.16;6204078;28;20215;-74
2021/01/26 00:19:43;;;;;;;1.10;1.10;;;;;;;-1.06;87.85;100377.66;6207183;28;20209;-74
2021/01/26 00:22:48;;;;;;;1.27;1.27;;;;;;;-1.03;88.75;100374.69;6200364;28;20329;-74
2021/01/26 00:25:51;;;;;;;1.17;1.17;;;;;;;-1.07;87.94;100378.66;6201774;28;20354;-76
2021/01/26 00:28:54;;;;;;;1.10;1.10;;;;;;;-0.97;87.48;100395.47;6207790;28;20768;-78
2021/01/26 00:31:58;;;;;;;1.10;1.10;;;;;;;-0.97;87.66;100395.47;6205253;28;20247;-74
2021/01/26 00:35:01;;;;;;;1.20;1.20;;;;;;;-0.92;87.65;100388.66;6210225;28;20282;-77
2021/01/26 00:38:06;;;;;;;1.10;1.10;;;;;;;-0.99;87.02;100392.13;6200358;28;20383;-76
2021/01/26 00:41:10;;;;;;;1.37;1.37;;;;;;;-0.96;87.87;100397.16;6197647;28;20186;-74
2021/01/26 00:44:13;;;;;;;1.20;1.20;;;;;;;-0.94;87.98;100406.72;6204611;28;20202;-75
2021/01/26 00:47:16;;;;;;;2.40;1.27;;;;;;;-1.02;87.26;100414.69;6202333;28;21074;-76
2021/01/26 00:50:22;;;;;;;1.20;1.20;;;;;;;-0.99;87.75;100411.72;6206521;28;20830;-76
2021/01/26 00:53:26;;;;;;;1.10;1.10;;;;;;;-0.91;87.94;100422.50;6208161;28;20200;-74
2021/01/26 00:56:35;;;;;;;1.00;1.00;;;;;;;-0.92;86.86;100409.25;6200031;28;20230;-75
2021/01/26 00:59:39;;;;;;;1.50;1.50;;;;;;;-0.81;86.07;100398.31;6204605;28;20194;-76
2021/01/26 01:02:42;;;;;;;1.03;1.03;;;;;;;-0.89;85.62;100404.44;6197953;28;20210;-76
2021/01/26 01:05:46;;;;;;;1.20;1.20;;;;;;;-0.86;85.92;100403.28;6206379;28;20205;-75
2021/01/26 01:08:50;;;;;;;1.10;1.10;;;;;;;-1.08;87.22;100406.44;6205833;28;20726;-74
2021/01/26 01:11:53;;;;;;;1.00;1.00;;;;;;;-0.90;86.53;100404.59;6201419;28;20195;-74
2021/01/26 01:14:56;;;;;;;1.20;1.20;;;;;;;-1.00;86.05;100411.88;6200292;28;20198;-76
2021/01/26 01:18:00;;;;;;;1.13;1.13;;;;;;;-1.06;86.94;100407.13;6196697;28;20612;-74
2021/01/26 01:21:03;;;;;;;1.10;1.10;;;;;;;-1.05;87.21;100408.81;6205247;28;20205;-74
2021/01/26 01:24:10;;;;;;;1.30;1.30;;;;;;;-0.80;85.89;100408.88;6202323;28;20791;-74
2021/01/26 01:27:13;;;;;;;2.20;1.10;;;;;;;-0.87;86.14;100406.94;6208296;28;20236;-74
2021/01/26 01:30:20;;;;;;;1.13;1.13;;;;;;;-1.10;87.23;100411.94;6196611;28;20337;-75
2021/01/26 01:33:24;;;;;;;1.10;1.10;;;;;;;-1.16;86.35;100423.25;6202340;28;20204;-74
2021/01/26 01:36:27;;;;;;;1.30;1.30;;;;;;;-1.15;86.43;100424.09;6193505;28;20244;-75
2021/01/26 01:39:31;;;;;;;1.20;1.20;;;;;;;-1.07;87.03;100429.53;6200189;28;20196;-75
2021/01/26 01:42:35;;;;;;;1.03;1.03;;;;;;;-1.01;85.73;100437.81;6202941;28;20213;-75
2021/01/26 01:45:38;;;;;;;1.00;1.00;;;;;;;-1.15;86.38;100434.78;6196472;28;20277;-76
2021/01/26 01:48:42;;;;;;;1.07;1.07;;;;;;;-1.07;86.24;100421.50;6204417;28;20292;-75
2021/01/26 01:51:45;;;;;;;1.10;1.10;;;;;;;-1.05;86.25;100430.22;6202959;28;20348;-75
2021/01/26 01:54:56;;;;;;;1.10;1.10;;;;;;;-1.23;86.04;100432.06;6200840;28;20202;-75
2021/01/26 01:58:03;;;;;;;1.10;1.10;;;;;;;-1.21;86.84;100436.25;6200522;28;20286;-75
2021/01/26 02:01:11;;;;;;;1.10;1.10;;;;;;;-1.12;87.42;100434.50;6193347;28;20654;-76
2021/01/26 02:04:18;;;;;;;1.00;1.00;;;;;;;-1.10;86.79;100432.50;6200477;28;20227;-75
2021/01/26 02:07:21;;;;;;;1.13;1.13;;;;;;;-1.23;85.71;100443.56;6206132;28;20204;-75
2021/01/26 02:10:25;;;;;;;1.00;1.00;;;;;;;-1.26;86.15;100455.44;6199444;28;20279;-75
2021/01/26 02:13:29;;;;;;;1.10;1.10;;;;;;;-1.31;86.15;100452.38;6203766;28;20640;-74
2021/01/26 02:16:48;;;;;;;1.07;1.07;;;;;;;-1.27;86.65;100458.28;6202533;28;20226;-74
2021/01/26 02:20:43;;;;;;;1.00;1.00;;;;;;;-1.30;86.80;100456.72;6196182;28;20206;-74
2021/01/26 02:24:43;;;;;;;1.00;1.00;;;;;;;-1.18;85.51;100461.88;6198999;28;20207;-74
2021/01/26 02:28:30;;;;;;;1.20;1.20;;;;;;;-1.43;86.12;100455.41;6190206;28;20241;-74
2021/01/26 02:31:55;;;;;;;1.20;1.20;;;;;;;-1.24;86.44;100451.78;6200185;28;20193;-73
2021/01/26 02:35:24;;;;;;;1.50;1.00;;;;;;;-1.15;86.26;100456.19;6203137;28;20868;-73
2021/01/26 02:39:13;;;;;;;1.30;1.30;;;;;;;-1.12;85.60;100461.25;6197453;28;20238;-74
2021/01/26 02:42:37;;;;;;;1.20;1.20;;;;;;;-1.29;85.50;100455.75;6190060;28;20288;-73
2021/01/26 02:45:48;;;;;;;1.30;1.30;;;;;;;-1.28;84.76;100457.41;6206907;28;20206;-75
2021/01/26 02:49:05;;;;;;;1.10;1.10;;;;;;;-1.33;86.12;100459.69;6204183;28;20235;-74
2021/01/26 02:52:16;;;;;;;1.13;1.13;;;;;;;-1.36;85.85;100454.66;6203183;28;20204;-74
2021/01/26 02:55:27;;;;;;;1.10;1.10;;;;;;;-1.27;85.15;100461.78;6194110;28;20199;-74
2021/01/26 02:58:37;;;;;;;1.10;1.10;;;;;;;-1.21;85.45;100459.50;6200487;28;20568;-74
2021/01/26 03:01:47;;;;;;;1.00;1.00;;;;;;;-1.37;85.31;100468.19;6203596;28;20208;-75
2021/01/26 03:04:59;;;;;;;1.13;1.13;;;;;;;-1.28;85.21;100473.47;6203524;28;20557;-74
2021/01/26 03:08:07;;;;;;;1.00;1.00;;;;;;;-1.34;84.84;100479.44;6199758;28;20213;-75
2021/01/26 03:11:18;;;;;;;1.00;1.00;;;;;;;-1.36;84.44;100485.91;6194963;28;20201;-74
2021/01/26 03:14:31;;;;;;;1.07;1.07;;;;;;;-1.19;85.54;100492.31;6202959;28;20197;-74
2021/01/26 03:17:38;;;;;;;1.20;1.20;;;;;;;-0.93;84.98;100488.75;6197400;28;20397;-75
2021/01/26 03:20:45;;;;;;;1.20;1.20;;;;;;;-0.77;84.00;100494.25;6201497;28;20636;-75
2021/01/26 03:23:56;;;;;;;1.10;1.10;;;;;;;-0.86;83.22;100505.91;6204962;28;20548;-75
2021/01/26 03:27:04;;;;;;;0.93;0.93;;;;;;;-1.04;82.94;100502.34;6210782;28;20201;-76
2021/01/26 03:30:12;;;;;;;1.00;1.00;;;;;;;-1.28;83.52;100500.25;6195347;28;20256;-74
2021/01/26 03:33:21;;;;;;;1.00;1.00;;;;;;;-1.21;82.51;100499.66;6196772;28;20640;-78
2021/01/26 03:36:24;;;;;;;1.20;1.20;;;;;;;-1.02;84.05;100504.88;6196406;28;20642;-74
2021/01/26 03:39:28;;;;;;;0.90;0.90;;;;;;;-1.21;83.55;100499.66;6195162;28;20233;-73
2021/01/26 03:42:34;;;;;;;1.00;1.00;;;;;;;-1.37;84.51;100495.81;6191680;28;20858;-75
2021/01/26 03:45:38;;;;;;;1.07;1.07;;;;;;;-1.48;84.18;100495.97;6199246;28;20208;-74
2021/01/26 03:49:02;;;;;;;0.90;0.90;;;;;;;-1.49;84.15;100502.31;6194679;28;20257;-74
2021/01/26 03:52:22;;;;;;;0.93;0.93;;;;;;;-1.41;83.86;100499.75;6195103;28;21036;-75
2021/01/26 03:55:30;;;;;;;1.07;1.07;;;;;;;-1.46;85.28;100496.69;6198565;28;20640;-75
2021/01/26 03:58:46;;;;;;;1.00;1.00;;;;;;;-1.28;84.38;100510.94;6208443;28;20249;-74
2021/01/26 04:02:03;;;;;;;1.20;1.20;;;;;;;-1.45;83.51;100503.72;6200290;28;20206;-77
2021/01/26 04:05:16;;;;;;;1.00;1.00;;;;;;;-1.27;84.48;100491.22;6199301;28;20198;-75
2021/01/26 04:08:31;;;;;;;1.07;1.07;;;;;;;-1.22;84.15;100503.31;6201675;28;20203;-74
2021/01/26 04:11:41;;;;;;;1.00;1.00;;;;;;;-1.37;84.08;100505.66;6201572;28;20207;-74
2021/01/26 04:14:50;;;;;;;1.00;1.00;;;;;;;-1.33;84.60;100502.53;6204056;28;20201;-75
2021/01/26 04:17:55;;;;;;;1.07;1.07;;;;;;;-1.41;84.64;100499.75;6200758;28;20218;-75
2021/01/26 04:20:59;;;;;;;1.10;1.10;;;;;;;-1.56;84.23;100501.22;6205026;28;20646;-74
2021/01/26 04:24:03;;;;;;;1.20;1.20;;;;;;;-1.62;84.77;100507.19;6196460;28;20291;-77
2021/01/26 04:27:13;;;;;;;1.20;1.20;;;;;;;-1.39;83.76;100503.09;6203592;28;20220;-75
2021/01/26 04:30:17;;;;;;;0.93;0.93;;;;;;;-1.55;84.65;100486.88;6201936;28;20641;-74
2021/01/26 04:33:21;;;;;;;1.00;1.00;;;;;;;-1.46;84.13;100491.31;6202502;28;20652;-74
2021/01/26 04:36:26;;;;;;;1.00;1.00;;;;;;;-1.51;84.30;100498.09;6204206;28;20655;-73
2021/01/26 04:39:29;;;;;;;1.00;1.00;;;;;;;-1.62;85.16;100512.53;6207653;28;20239;-75
2021/01/26 04:42:38;;;;;;;1.10;1.10;;;;;;;-1.49;85.29;100491.63;6200203;28;20296;-74
2021/01/26 04:45:51;;;;;;;1.00;1.00;;;;;;;-1.35;85.02;100509.88;6209237;28;20205;-74
2021/01/26 04:49:06;;;;;;;1.10;1.10;;;;;;;-1.48;85.25;100503.16;6198464;28;20203;-76
2021/01/26 04:52:19;;;;;;;1.20;1.20;;;;;;;-1.75;86.35;100503.16;6199488;28;20211;-74
2021/01/26 04:55:34;;;;;;;0.90;0.90;;;;;;;-1.43;85.34;100515.13;6198809;28;20205;-74
2021/01/26 04:59:05;;;;;;;1.27;1.27;;;;;;;-1.21;84.89;100510.38;6211454;28;20205;-74
2021/01/26 05:02:33;;;;;;;1.20;1.20;;;;;;;-1.19;85.04;100513.72;6206772;28;20197;-74
2021/01/26 05:05:44;;;;;;;1.20;1.20;;;;;;;-1.24;84.56;100521.38;6197989;28;20218;-74
2021/01/26 05:08:51;;;;;;;2.50;1.17;;;;;;;-1.09;84.36;100526.06;6207187;28;20195;-74
2021/01/26 05:11:56;;;;;;;1.20;1.20;;;;;;;-1.45;85.17;100519.78;6198440;28;20193;-74
2021/01/26 05:15:00;;;;;;;1.30;1.30;;;;;;;-1.59;86.72;100506.88;6199738;28;20554;-73
2021/01/26 05:18:09;;;;;;;1.93;1.70;;;;;;;-1.38;86.18;100504.81;6193737;28;20252;-74
2021/01/26 05:21:22;;;;;;;1.63;1.53;;;;;;;-1.76;86.15;100521.03;6202589;28;20586;-74
2021/01/26 05:24:33;;;;;;;1.40;1.40;;;;;;;-1.41;85.57;100515.81;6206094;28;20205;-74
2021/01/26 05:27:37;;;;;;;1.17;1.17;;;;;;;-1.24;85.29;100510.66;6195908;28;20682;-74
2021/01/26 05:30:40;;;;;;;1.50;1.40;;;;;;;-1.34;84.98;100505.38;6209405;28;20201;-74
2021/01/26 05:33:45;;;;;;;1.20;1.20;;;;;;;-1.04;84.55;100518.44;6196882;28;20202;-76
2021/01/26 05:36:49;;;;;;;1.30;1.30;;;;;;;-1.22;83.98;100520.22;6205342;28;20291;-78
2021/01/26 05:39:57;;;;;;;1.20;1.20;;;;;;;-1.18;84.56;100520.78;6194102;28;20210;-76
2021/01/26 05:43:06;;;;;;;1.40;1.40;;;;;;;-1.34;85.53;100527.63;6208196;28;20642;-74
2021/01/26 05:46:30;;;;;;;1.30;1.30;;;;;;;-1.21;84.56;100521.06;6218902;28;20197;-73
2021/01/26 05:49:50;;;;;;;1.20;1.20;;;;;;;-1.05;82.88;100526.63;6209352;28;20208;-73
2021/01/26 05:53:03;;;;;;;1.47;1.47;;;;;;;-1.45;84.52;100519.78;6202319;28;20213;-74
2021/01/26 05:56:10;;;;;;;1.50;1.50;;;;;;;-1.49;85.16;100513.03;6193994;28;20198;-75
2021/01/26 05:59:26;;;;;;;1.50;1.50;;;;;;;-1.32;84.23;100524.78;6190187;28;20231;-75
2021/01/26 06:02:29;;;;;;;1.37;1.37;;;;;;;-1.49;85.43;100529.06;6202744;28;20689;-75
2021/01/26 06:05:33;;;;;;;1.40;1.40;;;;;;;-1.62;85.06;100517.88;6203423;28;20217;-75
2021/01/26 06:08:51;;;;;;;1.40;1.40;;;;;;;-1.59;84.84;100528.28;6195791;28;20572;-74
2021/01/26 06:12:14;;;;;;;1.40;1.40;;;;;;;-1.48;85.81;100528.09;6194059;28;20667;-76
2021/01/26 06:15:22;;;;;;;1.70;1.70;;;;;;;-1.44;86.04;100521.44;6195363;28;20204;-74
2021/01/26 06:18:25;;;;;;;1.50;1.50;;;;;;;-1.32;86.00;100536.34;6199380;28;20218;-76
2021/01/26 06:21:31;;;;;;;1.63;1.53;;;;;;;-1.13;84.55;100529.19;6196838;28;20554;-75
2021/01/26 06:24:37;;;;;;;1.60;1.60;;;;;;;-1.23;83.68;100533.75;6198433;28;20198;-77
2021/01/26 06:28:01;;;;;;;1.40;1.40;;;;;;;-1.24;85.02;100546.31;6199369;28;20520;-74
2021/01/26 06:31:13;;;;;;;1.47;1.47;;;;;;;-1.14;85.66;100538.22;6192183;28;20195;-73
2021/01/26 06:34:27;;;;;;;1.43;1.43;;;;;;;-1.18;84.50;100536.84;6200824;28;20765;-73
2021/01/26 06:37:54;;;;;;;2.80;1.60;;;;;;;-1.35;84.98;100552.69;6193421;28;20359;-75
2021/01/26 06:41:23;;;;;;;1.40;1.40;;;;;;;-1.13;84.55;100545.25;6194996;28;20197;-74
2021/01/26 06:45:00;;;;;;;1.50;1.50;;;;;;;-1.22;84.14;100563.06;6197748;28;20204;-75
2021/01/26 06:48:23;;;;;;;1.70;1.70;;;;;;;-1.11;84.06;100553.97;6195548;28;20202;-74
2021/01/26 06:51:54;;;;;;;1.40;1.40;;;;;;;-0.97;83.33;100550.78;6202355;28;20607;-75
2021/01/26 06:55:31;;;;;;;1.60;1.60;;;;;;;-1.08;84.79;100564.41;6198687;28;20201;-77
2021/01/26 06:58:52;;;;;;;1.80;1.70;;;;;;;-1.24;84.24;100566.88;6196682;28;20222;-76
2021/01/26 07:02:24;;;;;;;1.60;1.60;;;;;;;-1.32;83.68;100563.09;6192507;28;20301;-75
2021/01/26 07:05:39;;;;;;;1.50;1.50;;;;;;;-1.33;84.29;100571.25;6191387;28;20257;-74
2021/01/26 07:09:05;;;;;;;1.60;1.60;;;;;;;-1.24;84.02;100567.72;6191963;28;20627;-74
2021/01/26 07:12:43;;;;;;;1.73;1.73;;;;;;;-1.49;85.80;100566.53;6195633;28;20230;-75
2021/01/26 07:16:04;;;;;;;1.87;1.87;;;;;;;-1.56;86.22;100570.78;6195633;28;20206;-75
2021/01/26 07:19:34;;;;;;;2.03;1.83;;;;;;;-1.47;85.47;100564.56;6195656;28;20262;-76
2021/01/26 07:23:07;;;;;;;1.50;1.50;;;;;;;-1.49;85.44;100571.88;6192672;28;20895;-75
2021/01/26 07:26:27;;;;;;;1.80;1.70;;;;;;;-1.44;85.67;100569.59;6198494;28;20241;-74
2021/01/26 07:29:41;;;;;;;1.40;1.40;;;;;;;-1.59;86.11;100576.41;6203844;28;20232;-76
2021/01/26 07:32:56;;;;;;;1.90;1.77;;;;;;;-1.54;86.24;100570.66;6198831;28;20205;-75
2021/01/26 07:36:08;;;;;;;1.50;1.50;;;;;;;-1.52;85.88;100572.19;6197676;28;20205;-74
2021/01/26 07:39:20;;;;;;;1.63;1.60;;;;;;;-1.64;86.78;100557.28;6201032;28;20220;-76
2021/01/26 07:42:31;;;;;;;1.80;1.70;;;;;;;-1.54;86.22;100578.69;6204999;28;20209;-75
2021/01/26 07:45:42;;;;;;;1.43;1.43;;;;;;;-1.55;86.31;100540.38;6201091;28;20557;-75
2021/01/26 07:48:55;;;;;;;1.50;1.20;;;;;;;-1.43;85.68;100571.31;6203515;28;20347;-74
2021/01/26 07:52:02;;;;;;;1.40;1.40;;;;;;;-1.41;85.55;100585.38;6200540;28;20210;-75
2021/01/26 07:55:10;;;;;;;1.43;1.43;;;;;;;-1.61;85.94;100573.06;6199269;28;20287;-76
2021/01/26 07:58:15;;;;;;;1.43;1.43;;;;;;;-1.62;87.24;100592.78;6196292;28;20232;-74
2021/01/26 08:01:25;;;;;;;1.80;1.70;;;;;;;-1.58;86.38;100588.81;6201055;28;20197;-74
2021/01/26 08:04:36;;;;;;;1.63;1.63;;;;;;;-1.66;86.70;100575.31;6205930;28;20200;-74
2021/01/26 08:07:40;;;;;;;1.50;1.50;;;;;;;-1.68;86.85;100588.00;6201851;28;20206;-74
2021/01/26 08:10:44;;;;;;;1.50;1.50;;;;;;;-1.47;86.78;100594.00;6201002;28;20347;-74
2021/01/26 08:13:50;;;;;;;1.70;1.53;;;;;;;-1.38;86.25;100590.44;6205748;28;20224;-74
2021/01/26 08:16:56;;;;;;;1.80;1.80;;;;;;;-1.23;85.21;100598.00;6204168;28;20307;-74
2021/01/26 08:20:06;;;;;;;1.60;1.60;;;;;;;-1.20;85.59;100592.34;6194583;28;20314;-74
2021/01/26 08:23:12;;;;;;;1.70;1.70;;;;;;;-1.42;86.23;100599.75;6211800;28;20209;-76
2021/01/26 08:26:18;;;;;;;2.03;2.00;;;;;;;-1.39;86.02;100594.09;6198913;28;20834;-73
2021/01/26 08:29:52;;;;;;;1.73;1.63;;;;;;;-1.11;85.35;100602.16;6194662;28;20235;-75
2021/01/26 08:33:15;;;;;;;2.10;2.10;;;;;;;-1.15;86.05;100590.06;6198565;28;20194;-74
2021/01/26 08:36:40;;;;;;;1.70;1.70;;;;;;;-1.21;85.87;100590.66;6197970;28;20552;-74
2021/01/26 08:39:46;;;;;;;1.80;1.80;;;;;;;-1.00;84.69;100593.94;6199248;28;20223;-74
2021/01/26 08:42:56;;;;;;;1.63;1.63;;;;;;;-1.13;85.10;100588.09;6196318;28;20589;-74
2021/01/26 08:45:59;;;;;;;1.50;1.50;;;;;;;-1.19;86.01;100597.56;6199797;28;20209;-74
2021/01/26 08:49:16;;;;;;;2.10;2.07;;;;;;;-1.11;84.84;100607.53;6194678;28;20589;-74
2021/01/26 08:52:29;;;;;;;1.90;1.80;;;;;;;-1.16;85.36;100599.09;6197203;28;20199;-76
2021/01/26 08:55:36;;;;;;;2.00;2.00;;;;;;;-1.12;84.96;100592.44;6195402;28;20665;-73
2021/01/26 08:58:42;;;;;;;1.70;1.70;;;;;;;-1.16;85.24;100589.25;6197142;28;20621;-75
2021/01/26 09:01:53;;;;;;;1.87;1.80;;;;;;;-1.17;84.93;100603.59;6202222;28;20208;-76
2021/01/26 09:04:56;;;;;;;2.37;1.90;;;;;;;-1.15;85.89;100606.13;6199669;28;20195;-75
2021/01/26 09:08:05;;;;;;;1.77;1.77;;;;;;;-1.21;85.60;100606.72;6199397;28;20202;-75
2021/01/26 09:11:14;;;;;;;1.57;1.57;;;;;;;-1.28;86.37;100615.34;6203729;28;20344;-74
2021/01/26 09:14:32;;;;;;;1.90;1.90;;;;;;;-1.14;85.53;100630.09;6202731;28;20238;-72
2021/01/26 09:17:37;;;;;;;3.03;2.17;;;;;;;-1.18;85.54;100611.78;6201549;28;20497;-74
2021/01/26 09:20:42;;;;;;;2.27;2.00;;;;;;;-1.00;85.63;100610.84;6196326;28;20221;-76
2021/01/26 09:23:47;;;;;;;1.87;1.87;;;;;;;-1.32;85.94;100611.28;6199948;28;20288;-75
2021/01/26 09:26:51;;;;;;;1.90;1.90;;;;;;;-1.15;84.39;100601.63;6199890;28;20204;-74
2021/01/26 09:30:06;;;;;;;2.27;2.17;;;;;;;-1.14;85.85;100613.16;6156132;28;20200;-74
2021/01/26 09:33:21;;;;;;;1.90;1.90;;;;;;;-1.25;85.28;100614.19;6148846;28;20240;-75
2021/01/26 09:36:24;;;;;;;2.20;2.10;;;;;;;-1.34;85.73;100617.75;6155474;28;20310;-75
2021/01/26 09:39:28;;;;;;;2.07;2.07;;;;;;;-1.10;85.37;100617.22;6159471;28;20215;-75
2021/01/26 09:42:32;;;;;;;1.90;1.80;;;;;;;-1.04;85.21;100608.63;6152475;28;20207;-74
2021/01/26 09:45:36;;;;;;;2.00;1.90;;;;;;;-1.30;85.22;100614.66;6149855;28;20202;-75
2021/01/26 09:48:41;;;;;;;4.43;2.10;;;;;;;-0.97;85.50;100609.69;6152576;28;20285;-75
2021/01/26 09:51:48;;;;;;;2.30;2.20;;;;;;;-1.00;85.56;100612.69;6143883;28;20201;-75
2021/01/26 09:55:02;;;;;;;2.10;2.00;;;;;;;-1.29;84.89;100616.34;6137902;28;20322;-75
2021/01/26 09:58:09;;;;;;;2.30;2.20;;;;;;;-1.26;85.73;100615.19;6145619;28;20221;-74
2021/01/26 10:01:15;;;;;;;2.10;2.10;;;;;;;-1.19;85.63;100610.09;6148792;28;20211;-73
2021/01/26 10:04:21;;;;;;;2.57;2.57;;;;;;;-1.16;84.73;100617.84;6156174;28;20627;-75
2021/01/26 10:07:24;;;;;;;11.27;7.90;;;;;;;-1.28;85.66;100615.34;6153114;28;20199;-74
2021/01/26 10:10:30;;;;;;;6.30;5.70;;;;;;;-1.16;85.88;100621.38;6146143;28;20295;-75
2021/01/26 10:13:38;;;;;;;3.17;2.80;;;;;;;-1.09;85.34;100621.59;6156417;28;20199;-74
2021/01/26 10:16:44;;;;;;;4.07;3.73;;;;;;;-1.23;85.32;100622.09;6145340;28;20726;-74
2021/01/26 10:19:47;;;;;;;3.93;3.73;;;;;;;-1.15;85.14;100616.81;6150084;28;20223;-74
2021/01/26 10:22:50;;;;;;;2.47;2.37;;;;;;;-1.20;85.62;100624.47;6160825;28;20278;-74
2021/01/26 10:26:08;;;;;;;3.47;3.37;;;;;;;-1.08;84.76;100618.78;6167221;28;20200;-77
2021/01/26 10:29:20;;;;;;;2.47;2.37;;;;;;;-1.26;86.08;100621.38;6192951;28;20376;-76
2021/01/26 10:32:43;;;;;;;2.87;2.80;;;;;;;-1.36;87.10;100625.91;6195866;28;20209;-75
2021/01/26 10:35:47;;;;;;;2.20;2.20;;;;;;;-1.29;86.81;100621.69;6197979;28;20198;-76
2021/01/26 10:38:52;;;;;;;2.27;2.27;;;;;;;-1.32;86.11;100615.78;6191450;28;20228;-76
2021/01/26 10:42:02;;;;;;;2.90;2.73;;;;;;;-1.27;86.24;100619.72;6197888;28;20306;-74
2021/01/26 10:45:08;;;;;;;2.70;2.70;;;;;;;-1.02;85.57;100622.69;6198035;28;20198;-74
2021/01/26 10:48:21;;;;;;;2.27;2.20;;;;;;;-1.08;85.92;100628.66;6197333;28;20213;-74
2021/01/26 10:51:28;;;;;;;3.03;2.93;;;;;;;-1.09;85.22;100610.88;6200252;28;20560;-75
2021/01/26 10:54:37;;;;;;;2.80;2.60;;;;;;;-1.03;85.62;100613.00;6210473;28;20314;-76
2021/01/26 10:57:42;;;;;;;3.47;3.27;;;;;;;-1.13;85.40;100614.88;6226763;28;20208;-75
2021/01/26 11:00:45;;;;;;;3.50;3.20;;;;;;;-1.15;86.04;100617.69;6223351;28;20225;-77
2021/01/26 11:03:49;;;;;;;2.87;2.67;;;;;;;-1.06;85.54;100621.31;6225473;28;20625;-75
2021/01/26 11:06:52;;;;;;;3.47;3.27;;;;;;;-1.23;86.20;100624.78;6232729;28;20222;-75
2021/01/26 11:09:56;;;;;;;3.60;3.30;;;;;;;-1.12;86.52;100625.41;6226040;28;20198;-73
2021/01/26 11:12:59;;;;;;;2.30;2.30;;;;;;;-1.11;85.94;100620.91;6228606;28;20353;-75
2021/01/26 11:16:03;;;;;;;2.47;2.37;;;;;;;-1.11;86.09;100623.59;6223357;28;20198;-75
2021/01/26 11:19:09;;;;;;;1.90;1.90;;;;;;;-0.98;85.61;100621.41;6235557;28;20201;-75
2021/01/26 11:22:12;;;;;;;2.50;2.40;;;;;;;-1.26;86.77;100613.34;6235485;28;20205;-75
2021/01/26 11:25:17;;;;;;;2.13;2.13;;;;;;;-1.26;86.20;100615.19;6238203;28;20207;-75
2021/01/26 11:28:21;;;;;;;2.37;2.33;;;;;;;-1.21;86.79;100612.06;6229786;28;20232;-74
2021/01/26 11:31:25;;;;;;;4.40;1.97;;;;;;;-1.21;85.25;100606.72;6231708;28;20201;-77
2021/01/26 11:34:28;;;;;;;2.47;2.27;;;;;;;-1.30;86.40;100608.44;6215458;28;20203;-74
2021/01/26 11:37:32;;;;;;;5.80;1.87;;;;;;;-1.01;86.66;100592.25;6220212;28;20227;-74
2021/01/26 11:40:35;;;;;;;2.30;2.30;;;;;;;-1.08;86.25;100607.25;6224970;28;20264;-74
2021/01/26 11:43:39;;;;;;;3.10;2.87;;;;;;;-1.09;86.81;100600.19;6227622;28;20213;-74
2021/01/26 11:46:42;;;;;;;2.60;2.40;;;;;;;-1.21;87.20;100596.88;6229004;28;20637;-74
2021/01/26 11:49:46;;;;;;;2.30;2.30;;;;;;;-1.32;87.08;100595.22;6218373;28;20210;-74
2021/01/26 11:52:50;;;;;;;2.67;2.57;;;;;;;-1.26;86.04;100593.78;6223459;28;20194;-75
2021/01/26 11:55:55;;;;;;;2.50;2.40;;;;;;;-1.01;85.05;100587.75;6222541;28;20226;-75
2021/01/26 11:58:59;;;;;;;2.10;2.00;;;;;;;-1.09;86.66;100594.81;6229237;28;20208;-74
2021/01/26 12:02:03;;;;;;;2.43;2.33;;;;;;;-1.15;86.58;100590.06;6229606;28;20221;-76
2021/01/26 12:05:08;;;;;;;2.63;2.40;;;;;;;-1.16;85.80;100594.59;6223436;28;20201;-75
2021/01/26 12:08:13;;;;;;;2.43;2.30;;;;;;;-1.14;86.24;100586.41;6228462;28;20200;-75
2021/01/26 12:11:17;;;;;;;2.50;2.40;;;;;;;-1.23;86.62;100592.66;6224520;28;20207;-76
2021/01/26 12:14:21;;;;;;;2.43;2.43;;;;;;;-1.11;86.85;100586.09;6227201;28;20198;-75
2021/01/26 12:17:24;;;;;;;2.03;2.03;;;;;;;-0.98;85.91;100586.59;6224262;28;20200;-75
2021/01/26 12:20:30;;;;;;;1.87;1.87;;;;;;;-1.22;86.67;100580.94;6218141;28;20218;-75
2021/01/26 12:23:34;;;;;;;2.10;2.10;;;;;;;-1.05;86.40;100580.16;6223748;28;20226;-74
2021/01/26 12:26:37;;;;;;;4.30;2.30;;;;;;;-1.18;86.26;100579.66;6219937;28;20210;-76
2021/01/26 12:29:41;;;;;;;2.17;2.17;;;;;;;-0.96;86.03;100585.47;6222069;28;20743;-73
2021/01/26 12:32:45;;;;;;;2.30;2.30;;;;;;;-1.01;85.25;100593.09;6223427;28;20617;-74
2021/01/26 12:35:48;;;;;;;1.87;1.87;;;;;;;-1.02;86.59;100606.63;6217712;28;20234;-76
2021/01/26 12:38:51;;;;;;;2.00;1.97;;;;;;;-1.08;86.14;100615.28;6227108;28;20225;-75
2021/01/26 12:41:55;;;;;;;2.30;2.20;;;;;;;-1.02;87.57;100611.97;6222829;28;20214;-74
2021/01/26 12:44:59;;;;;;;2.40;2.30;;;;;;;-0.79;87.00;100618.63;6219487;28;20728;-74
2021/01/26 12:48:04;;;;;;;2.30;2.30;;;;;;;-0.97;86.13;100620.41;6223054;28;20201;-74
2021/01/26 12:51:07;;;;;;;4.00;2.40;;;;;;;-0.85;86.16;100609.34;6228404;28;20229;-77
2021/01/26 12:54:10;;;;;;;2.40;2.30;;;;;;;-0.90;86.97;100610.81;6226935;28;20644;-75
2021/01/26 12:57:13;;;;;;;5.03;2.20;;;;;;;-1.02;86.67;100622.69;6221569;28;20211;-76
2021/01/26 13:00:21;;;;;;;2.23;2.13;;;;;;;-0.75;86.06;100620.03;6223389;28;20683;-74
2021/01/26 13:03:27;;;;;;;2.53;2.30;;;;;;;-0.90;85.93;100621.53;6218377;28;20198;-75
2021/01/26 13:06:30;;;;;;;2.23;2.23;;;;;;;-0.94;86.91;100625.47;6229342;28;20633;-75
2021/01/26 13:09:34;;;;;;;2.03;2.03;;;;;;;-0.96;86.07;100617.59;6224466;28;20211;-78
2021/01/26 13:12:38;;;;;;;2.43;2.17;;;;;;;-0.82;85.99;100608.19;6230146;28;20202;-77
2021/01/26 13:15:42;;;;;;;2.50;2.30;;;;;;;-0.67;86.11;100622.81;6219959;28;20200;-75
2021/01/26 13:18:46;;;;;;;1.93;1.93;;;;;;;-0.63;85.74;100624.19;6218090;28;20201;-75
2021/01/26 13:21:51;;;;;;;2.23;2.00;;;;;;;-0.91;85.77;100619.81;6220687;28;20223;-74
2021/01/26 13:24:54;;;;;;;2.00;2.00;;;;;;;-1.07;85.98;100630.31;6221443;28;20261;-75
2021/01/26 13:27:58;;;;;;;2.30;2.20;;;;;;;-0.99;86.77;100630.44;6228377;28;20236;-76
2021/01/26 13:31:03;;;;;;;2.10;2.10;;;;;;;-0.81;86.05;100636.69;6223341;28;20653;-75
2021/01/26 13:34:07;;;;;;;2.37;2.27;;;;;;;-0.78;86.56;100623.00;6217829;28;20573;-74
2021/01/26 13:37:11;;;;;;;1.90;1.80;;;;;;;-1.02;86.54;100633.41;6222355;28;20700;-74
2021/01/26 13:40:15;;;;;;;1.90;1.90;;;;;;;-0.82;85.71;100637.66;6217612;28;20218;-74
2021/01/26 13:43:19;;;;;;;1.87;1.87;;;;;;;-0.94;86.79;100641.53;6231717;28;20372;-74
2021/01/26 13:46:23;;;;;;;2.33;2.33;;;;;;;-0.96;87.01;100632.81;6224690;28;20284;-75
2021/01/26 13:49:26;;;;;;;2.10;2.10;;;;;;;-0.93;87.49;100637.88;6217403;28;20565;-75
2021/01/26 13:52:30;;;;;;;4.63;2.33;;;;;;;-0.84;86.70;100632.47;6227300;28;20675;-74
2021/01/26 13:55:34;;;;;;;1.90;1.80;;;;;;;-0.69;86.17;100627.44;6221193;28;20199;-76
2021/01/26 13:58:37;;;;;;;2.40;2.30;;;;;;;-0.71;86.35;100642.84;6238648;28;20194;-75
2021/01/26 14:01:41;;;;;;;2.20;2.10;;;;;;;-0.67;85.83;100641.56;6228766;28;20206;-75
2021/01/26 14:04:46;;;;;;;2.83;2.20;;;;;;;-0.63;86.27;100641.09;6221133;28;20656;-75
2021/01/26 14:08:00;;;;;;;1.90;1.90;;;;;;;-0.84;86.52;100650.38;6219778;28;20244;-76
2021/01/26 14:11:04;;;;;;;2.33;2.17;;;;;;;-0.79;87.38;100661.47;6232985;28;20724;-75
2021/01/26 14:14:07;;;;;;;2.07;1.97;;;;;;;-0.76;86.87;100655.84;6224667;28;20208;-78
2021/01/26 14:17:12;;;;;;;2.30;2.30;;;;;;;-0.66;87.01;100667.34;6224787;28;20194;-74
2021/01/26 14:20:18;;;;;;;2.13;2.07;;;;;;;-0.79;87.30;100651.63;6225083;28;20228;-75
2021/01/26 14:23:22;;;;;;;2.03;1.90;;;;;;;-0.75;87.18;100662.88;6221894;28;20352;-75
2021/01/26 14:26:43;;;;;;;2.00;2.00;;;;;;;-0.87;87.75;100664.06;6223921;28;20203;-75
2021/01/26 14:29:47;;;;;;;2.00;2.00;;;;;;;-0.96;87.96;100665.81;6222438;28;20226;-75
2021/01/26 14:32:51;;;;;;;2.00;2.00;;;;;;;-0.95;88.14;100667.47;6214858;28;20195;-75
2021/01/26 14:35:55;;;;;;;2.50;2.40;;;;;;;-0.94;88.49;100657.59;6222516;28;20275;-75
2021/01/26 14:38:58;;;;;;;2.23;2.10;;;;;;;-0.81;88.20;100668.81;6214981;28;20761;-75